仙台 の空港の天気 - METARとTAF

仙台空港 ( RJSS / SDJ ) - 宮城県名取市 (仙台市近郊)
飛行場実況気象(Metar)
観測時間04/24 21:00 JST (04/24 12:00 UTC)
風向・風速北東 3m/s
視程5000m
天気現象弱い雨 もや
少しの雲 雲底高度 30m
全天の8割程度の雲 雲底高度 90m
全天の8割程度の雲 雲底高度 180m
気温13℃
湿度100%
気圧1011hPa
METARRJSS 241200Z 05006KT 5000 -RA BR FEW001 BKN003 BKN006 13/13 Q1011
過去の天気等 Google飛行場航空写真 Wunderground天気予報

過去48時間のMETAR

飛行場予報(TAF)
発表時間: 4/24 20:10 JST (4/24 11:10 UTC)
予報対象時間: 24日21時 JST ~ 26日3時 JST
風向・風速北北東 2m/s
視程4,000m
天気現象弱い雨 もや
少しの雲 雲底高度 150m
全天の8割程度の雲 雲底高度 240m
全天の8割程度の雲 雲底高度 460m
24日21時 JST ~ 25日6時 JST に一時的に
視程1,500m
天気現象弱い雨 もや
少しの雲 雲底高度 30m
全天の8割程度の雲 雲底高度 90m
全天の8割程度の雲 雲底高度 150m
25日6時 JST ~ 25日12時 JST に一時的に
視程3,000m
天気現象しゅう雨 もや
少しの雲 雲底高度 60m
全天の8割程度の雲 雲底高度 150m
全天の8割程度の雲 雲底高度 240m
25日12時 JST ~ 25日15時 JST に徐々に
風向・風速西 5m/s
視程10km以上
天気現象運行に影響にある天気現象が終了
少しの雲 雲底高度 300m
全天の4割程度の雲 雲底高度 610m
TAF RJSS 241110Z 2412/2518 03004KT 4000 -RA BR FEW005 BKN008 BKN015
TEMPO 2412/2421 1500 -RA BR FEW001 BKN003 BKN005
TEMPO 2421/2503 3000 SHRA BR FEW002 BKN005 BKN008
BECMG 2503/2506 28010KT 9999 NSW FEW010 SCT020
日本の空港のMETAR・TAFへのリンク

RJTT 東京国際空港
RJAA 新東京国際空港
RJBB 関西国際空港
RJOO 大阪空港
RJGG 中部国際空港
RJCC 新千歳空港
RJFF 福岡空港
ROAH 那覇空港


RJEC 旭川空港
RJCH 函館空港
RJCK 釧路空港
RJCM 女満別空港
RJCB 帯広空港
RJSA 青森空港
RJSS 仙台空港
RJSK 秋田空港
RJSF 福島空港
RJAH 茨城空港
RJSN 新潟空港
RJNT 富山空港
RJNK 小松飛行場
RJNS 静岡空港
RJOH 美保飛行場
RJOC 出雲空港
RJOB 岡山空港
RJOA 広島空港
RJOI 岩国飛行場
RJOT 高松空港
RJOM 松山空港
RJOK 高知空港
RJFR 北九州空港
RJFT 熊本空港
RJFU 長崎空港
RJFS 佐賀空港
RJFO 大分空港
RJFM 宮崎空港
RJFK 鹿児島空港
ROIG 石垣島空港
RJTY 横田飛行場
ROTM 普天間飛行場
RODN 嘉手納飛行場